sensor_id;sensor_type;location;lat;lon;timestamp;P1;durP1;ratioP1;P2;durP2;ratioP2
14754;SDS011;7469;50.906;6.952;2024-01-07T00:02:23;33.57;;;22.83;;
14754;SDS011;7469;50.906;6.952;2024-01-07T00:04:52;40.77;;;25.20;;
14754;SDS011;7469;50.906;6.952;2024-01-07T00:07:20;42.27;;;26.10;;
14754;SDS011;7469;50.906;6.952;2024-01-07T00:09:48;43.73;;;27.47;;
14754;SDS011;7469;50.906;6.952;2024-01-07T00:12:16;43.67;;;28.20;;
14754;SDS011;7469;50.906;6.952;2024-01-07T00:14:44;42.17;;;26.87;;
14754;SDS011;7469;50.906;6.952;2024-01-07T00:17:12;44.37;;;28.27;;
14754;SDS011;7469;50.906;6.952;2024-01-07T00:19:40;41.27;;;26.87;;
14754;SDS011;7469;50.906;6.952;2024-01-07T00:22:09;41.77;;;27.30;;
14754;SDS011;7469;50.906;6.952;2024-01-07T00:24:37;43.10;;;27.10;;
14754;SDS011;7469;50.906;6.952;2024-01-07T00:27:05;37.27;;;25.27;;
14754;SDS011;7469;50.906;6.952;2024-01-07T00:29:34;42.37;;;25.93;;
14754;SDS011;7469;50.906;6.952;2024-01-07T00:32:03;40.07;;;25.33;;
14754;SDS011;7469;50.906;6.952;2024-01-07T00:34:31;40.07;;;25.33;;
14754;SDS011;7469;50.906;6.952;2024-01-07T00:36:59;34.40;;;22.53;;
14754;SDS011;7469;50.906;6.952;2024-01-07T00:39:29;35.30;;;22.80;;
14754;SDS011;7469;50.906;6.952;2024-01-07T00:41:57;41.93;;;23.67;;
14754;SDS011;7469;50.906;6.952;2024-01-07T00:44:25;37.47;;;23.37;;
14754;SDS011;7469;50.906;6.952;2024-01-07T00:46:53;34.27;;;22.03;;
14754;SDS011;7469;50.906;6.952;2024-01-07T00:49:20;32.97;;;21.27;;
14754;SDS011;7469;50.906;6.952;2024-01-07T00:51:48;30.23;;;20.93;;
14754;SDS011;7469;50.906;6.952;2024-01-07T00:54:16;32.20;;;21.03;;
14754;SDS011;7469;50.906;6.952;2024-01-07T00:56:46;33.73;;;22.07;;
14754;SDS011;7469;50.906;6.952;2024-01-07T00:59:14;33.47;;;19.93;;
14754;SDS011;7469;50.906;6.952;2024-01-07T01:01:42;30.10;;;19.63;;
14754;SDS011;7469;50.906;6.952;2024-01-07T01:04:10;27.53;;;18.73;;
14754;SDS011;7469;50.906;6.952;2024-01-07T01:06:38;27.97;;;18.00;;
14754;SDS011;7469;50.906;6.952;2024-01-07T01:09:06;24.83;;;17.40;;
14754;SDS011;7469;50.906;6.952;2024-01-07T01:11:34;23.33;;;15.83;;
14754;SDS011;7469;50.906;6.952;2024-01-07T01:14:03;19.70;;;15.13;;
14754;SDS011;7469;50.906;6.952;2024-01-07T01:16:31;21.20;;;14.37;;
14754;SDS011;7469;50.906;6.952;2024-01-07T01:18:59;19.97;;;14.77;;
14754;SDS011;7469;50.906;6.952;2024-01-07T01:21:27;20.77;;;14.97;;
14754;SDS011;7469;50.906;6.952;2024-01-07T01:23:55;18.43;;;13.17;;
14754;SDS011;7469;50.906;6.952;2024-01-07T01:26:24;19.40;;;14.43;;
14754;SDS011;7469;50.906;6.952;2024-01-07T01:28:52;18.30;;;13.20;;
14754;SDS011;7469;50.906;6.952;2024-01-07T01:31:21;18.03;;;13.10;;
14754;SDS011;7469;50.906;6.952;2024-01-07T01:33:49;17.33;;;13.10;;
14754;SDS011;7469;50.906;6.952;2024-01-07T01:36:17;20.57;;;14.73;;
14754;SDS011;7469;50.906;6.952;2024-01-07T01:38:45;17.47;;;12.50;;
14754;SDS011;7469;50.906;6.952;2024-01-07T01:41:15;15.67;;;12.10;;
14754;SDS011;7469;50.906;6.952;2024-01-07T01:43:43;16.67;;;12.27;;
14754;SDS011;7469;50.906;6.952;2024-01-07T01:46:12;16.80;;;12.30;;
14754;SDS011;7469;50.906;6.952;2024-01-07T01:48:42;16.27;;;12.37;;
14754;SDS011;7469;50.906;6.952;2024-01-07T01:51:11;17.30;;;12.33;;
14754;SDS011;7469;50.906;6.952;2024-01-07T01:53:39;16.97;;;12.33;;
14754;SDS011;7469;50.906;6.952;2024-01-07T01:56:07;17.23;;;12.60;;
14754;SDS011;7469;50.906;6.952;2024-01-07T01:58:36;15.97;;;11.57;;
14754;SDS011;7469;50.906;6.952;2024-01-07T02:01:04;15.73;;;11.63;;
14754;SDS011;7469;50.906;6.952;2024-01-07T02:03:33;14.97;;;11.80;;
14754;SDS011;7469;50.906;6.952;2024-01-07T02:06:02;15.53;;;11.60;;
14754;SDS011;7469;50.906;6.952;2024-01-07T02:08:30;16.50;;;12.73;;
14754;SDS011;7469;50.906;6.952;2024-01-07T02:11:03;16.23;;;11.67;;
14754;SDS011;7469;50.906;6.952;2024-01-07T02:13:41;15.43;;;10.83;;
14754;SDS011;7469;50.906;6.952;2024-01-07T02:16:09;18.63;;;12.27;;
14754;SDS011;7469;50.906;6.952;2024-01-07T02:18:38;14.93;;;11.00;;
14754;SDS011;7469;50.906;6.952;2024-01-07T02:21:10;15.07;;;11.40;;
14754;SDS011;7469;50.906;6.952;2024-01-07T02:23:40;15.27;;;10.93;;
14754;SDS011;7469;50.906;6.952;2024-01-07T02:26:09;14.23;;;10.70;;
14754;SDS011;7469;50.906;6.952;2024-01-07T02:28:37;13.77;;;10.63;;
14754;SDS011;7469;50.906;6.952;2024-01-07T02:31:05;13.53;;;10.47;;
14754;SDS011;7469;50.906;6.952;2024-01-07T02:33:33;15.53;;;9.90;;
14754;SDS011;7469;50.906;6.952;2024-01-07T02:36:01;16.73;;;11.20;;
14754;SDS011;7469;50.906;6.952;2024-01-07T02:38:30;14.93;;;11.17;;
14754;SDS011;7469;50.906;6.952;2024-01-07T02:40:57;14.30;;;10.33;;
14754;SDS011;7469;50.906;6.952;2024-01-07T02:43:27;14.10;;;11.30;;
14754;SDS011;7469;50.906;6.952;2024-01-07T02:45:55;14.50;;;10.63;;
14754;SDS011;7469;50.906;6.952;2024-01-07T02:48:23;14.50;;;11.10;;
14754;SDS011;7469;50.906;6.952;2024-01-07T02:50:51;13.30;;;10.77;;
14754;SDS011;7469;50.906;6.952;2024-01-07T02:53:19;16.13;;;11.20;;
14754;SDS011;7469;50.906;6.952;2024-01-07T02:55:47;15.17;;;11.27;;
14754;SDS011;7469;50.906;6.952;2024-01-07T02:58:15;18.30;;;12.67;;
14754;SDS011;7469;50.906;6.952;2024-01-07T03:00:44;13.53;;;11.07;;
14754;SDS011;7469;50.906;6.952;2024-01-07T03:03:12;16.67;;;11.43;;
14754;SDS011;7469;50.906;6.952;2024-01-07T03:05:40;16.33;;;11.97;;
14754;SDS011;7469;50.906;6.952;2024-01-07T03:08:08;17.30;;;12.73;;
14754;SDS011;7469;50.906;6.952;2024-01-07T03:10:36;15.80;;;11.93;;
14754;SDS011;7469;50.906;6.952;2024-01-07T03:13:04;15.50;;;12.03;;
14754;SDS011;7469;50.906;6.952;2024-01-07T03:15:32;15.60;;;12.10;;
14754;SDS011;7469;50.906;6.952;2024-01-07T03:18:02;14.97;;;11.53;;
14754;SDS011;7469;50.906;6.952;2024-01-07T03:20:30;17.43;;;12.27;;
14754;SDS011;7469;50.906;6.952;2024-01-07T03:22:59;17.30;;;12.67;;
14754;SDS011;7469;50.906;6.952;2024-01-07T03:25:27;16.53;;;12.60;;
14754;SDS011;7469;50.906;6.952;2024-01-07T03:27:55;18.63;;;13.77;;
14754;SDS011;7469;50.906;6.952;2024-01-07T03:30:23;20.27;;;14.03;;
14754;SDS011;7469;50.906;6.952;2024-01-07T03:32:52;19.40;;;14.50;;
14754;SDS011;7469;50.906;6.952;2024-01-07T03:35:21;17.90;;;14.13;;
14754;SDS011;7469;50.906;6.952;2024-01-07T03:37:50;18.67;;;14.07;;
14754;SDS011;7469;50.906;6.952;2024-01-07T03:40:18;17.17;;;13.10;;
14754;SDS011;7469;50.906;6.952;2024-01-07T03:42:46;19.03;;;13.67;;
14754;SDS011;7469;50.906;6.952;2024-01-07T03:45:14;18.07;;;13.33;;
14754;SDS011;7469;50.906;6.952;2024-01-07T03:47:42;19.73;;;13.97;;
14754;SDS011;7469;50.906;6.952;2024-01-07T03:50:10;19.53;;;14.53;;
14754;SDS011;7469;50.906;6.952;2024-01-07T03:52:39;20.57;;;14.97;;
14754;SDS011;7469;50.906;6.952;2024-01-07T03:55:07;21.00;;;14.50;;
14754;SDS011;7469;50.906;6.952;2024-01-07T03:57:36;20.73;;;15.60;;
14754;SDS011;7469;50.906;6.952;2024-01-07T04:00:04;23.67;;;17.00;;
14754;SDS011;7469;50.906;6.952;2024-01-07T04:02:34;22.03;;;16.30;;
14754;SDS011;7469;50.906;6.952;2024-01-07T04:05:02;24.37;;;18.10;;
14754;SDS011;7469;50.906;6.952;2024-01-07T04:07:30;27.83;;;18.57;;
14754;SDS011;7469;50.906;6.952;2024-01-07T04:10:00;26.20;;;19.17;;
14754;SDS011;7469;50.906;6.952;2024-01-07T04:12:28;29.07;;;19.93;;
14754;SDS011;7469;50.906;6.952;2024-01-07T04:14:56;23.50;;;17.77;;
14754;SDS011;7469;50.906;6.952;2024-01-07T04:17:25;28.57;;;18.23;;
14754;SDS011;7469;50.906;6.952;2024-01-07T04:19:53;30.33;;;19.87;;
14754;SDS011;7469;50.906;6.952;2024-01-07T04:22:21;29.87;;;19.73;;
14754;SDS011;7469;50.906;6.952;2024-01-07T04:24:49;27.30;;;19.63;;
14754;SDS011;7469;50.906;6.952;2024-01-07T04:27:18;31.10;;;19.53;;
14754;SDS011;7469;50.906;6.952;2024-01-07T04:29:46;26.70;;;19.40;;
14754;SDS011;7469;50.906;6.952;2024-01-07T04:32:14;28.43;;;19.80;;
14754;SDS011;7469;50.906;6.952;2024-01-07T04:34:42;23.97;;;18.33;;
14754;SDS011;7469;50.906;6.952;2024-01-07T04:37:10;24.70;;;17.07;;
14754;SDS011;7469;50.906;6.952;2024-01-07T04:39:38;24.63;;;17.63;;
14754;SDS011;7469;50.906;6.952;2024-01-07T04:42:06;26.83;;;17.97;;
14754;SDS011;7469;50.906;6.952;2024-01-07T04:44:39;24.93;;;18.13;;
14754;SDS011;7469;50.906;6.952;2024-01-07T04:47:22;26.37;;;17.27;;
14754;SDS011;7469;50.906;6.952;2024-01-07T04:49:53;28.23;;;17.70;;
14754;SDS011;7469;50.906;6.952;2024-01-07T04:52:21;22.80;;;16.10;;
14754;SDS011;7469;50.906;6.952;2024-01-07T04:54:50;25.87;;;16.70;;
14754;SDS011;7469;50.906;6.952;2024-01-07T04:57:18;21.33;;;15.30;;
14754;SDS011;7469;50.906;6.952;2024-01-07T04:59:48;21.33;;;15.70;;
14754;SDS011;7469;50.906;6.952;2024-01-07T05:02:17;24.40;;;16.47;;
14754;SDS011;7469;50.906;6.952;2024-01-07T05:04:45;24.67;;;16.47;;
14754;SDS011;7469;50.906;6.952;2024-01-07T05:07:13;23.80;;;16.37;;
14754;SDS011;7469;50.906;6.952;2024-01-07T05:09:41;21.23;;;15.10;;
14754;SDS011;7469;50.906;6.952;2024-01-07T05:12:09;24.97;;;16.37;;
14754;SDS011;7469;50.906;6.952;2024-01-07T05:14:37;21.27;;;15.40;;
14754;SDS011;7469;50.906;6.952;2024-01-07T05:17:06;21.67;;;15.70;;
14754;SDS011;7469;50.906;6.952;2024-01-07T05:19:34;22.80;;;16.37;;
14754;SDS011;7469;50.906;6.952;2024-01-07T05:22:02;22.90;;;16.03;;
14754;SDS011;7469;50.906;6.952;2024-01-07T05:24:31;22.93;;;16.53;;
14754;SDS011;7469;50.906;6.952;2024-01-07T05:27:00;25.63;;;17.00;;
14754;SDS011;7469;50.906;6.952;2024-01-07T05:29:28;23.37;;;16.67;;
14754;SDS011;7469;50.906;6.952;2024-01-07T05:31:56;22.17;;;16.50;;
14754;SDS011;7469;50.906;6.952;2024-01-07T05:34:28;23.10;;;16.23;;
14754;SDS011;7469;50.906;6.952;2024-01-07T05:36:56;21.60;;;15.97;;
14754;SDS011;7469;50.906;6.952;2024-01-07T05:39:24;21.73;;;16.43;;
14754;SDS011;7469;50.906;6.952;2024-01-07T05:41:52;20.03;;;15.73;;
14754;SDS011;7469;50.906;6.952;2024-01-07T05:44:20;21.23;;;15.77;;
14754;SDS011;7469;50.906;6.952;2024-01-07T05:46:47;20.87;;;14.57;;
14754;SDS011;7469;50.906;6.952;2024-01-07T05:49:15;19.77;;;14.30;;
14754;SDS011;7469;50.906;6.952;2024-01-07T05:51:45;19.40;;;14.70;;
14754;SDS011;7469;50.906;6.952;2024-01-07T05:54:13;19.57;;;14.13;;
14754;SDS011;7469;50.906;6.952;2024-01-07T05:56:41;19.40;;;14.70;;
14754;SDS011;7469;50.906;6.952;2024-01-07T05:59:09;19.47;;;14.83;;
14754;SDS011;7469;50.906;6.952;2024-01-07T06:01:37;21.57;;;14.70;;
14754;SDS011;7469;50.906;6.952;2024-01-07T06:04:05;20.53;;;14.63;;
14754;SDS011;7469;50.906;6.952;2024-01-07T06:06:33;20.30;;;14.73;;
14754;SDS011;7469;50.906;6.952;2024-01-07T06:09:02;19.90;;;14.40;;
14754;SDS011;7469;50.906;6.952;2024-01-07T06:11:30;19.60;;;15.07;;
14754;SDS011;7469;50.906;6.952;2024-01-07T06:13:58;19.43;;;14.87;;
14754;SDS011;7469;50.906;6.952;2024-01-07T06:16:26;18.93;;;14.70;;
14754;SDS011;7469;50.906;6.952;2024-01-07T06:18:54;21.80;;;15.13;;
14754;SDS011;7469;50.906;6.952;2024-01-07T06:21:22;21.43;;;15.47;;
14754;SDS011;7469;50.906;6.952;2024-01-07T06:23:51;18.33;;;14.73;;
14754;SDS011;7469;50.906;6.952;2024-01-07T06:26:20;18.57;;;14.20;;
14754;SDS011;7469;50.906;6.952;2024-01-07T06:28:48;20.13;;;14.93;;
14754;SDS011;7469;50.906;6.952;2024-01-07T06:31:16;18.60;;;14.53;;
14754;SDS011;7469;50.906;6.952;2024-01-07T06:33:44;22.47;;;16.00;;
14754;SDS011;7469;50.906;6.952;2024-01-07T06:36:12;21.70;;;16.10;;
14754;SDS011;7469;50.906;6.952;2024-01-07T06:38:40;22.60;;;15.80;;
14754;SDS011;7469;50.906;6.952;2024-01-07T06:41:09;20.93;;;16.30;;
14754;SDS011;7469;50.906;6.952;2024-01-07T06:43:38;18.40;;;13.73;;
14754;SDS011;7469;50.906;6.952;2024-01-07T06:46:06;18.10;;;14.90;;
14754;SDS011;7469;50.906;6.952;2024-01-07T06:48:34;19.50;;;15.00;;
14754;SDS011;7469;50.906;6.952;2024-01-07T06:51:02;20.07;;;14.77;;
14754;SDS011;7469;50.906;6.952;2024-01-07T06:53:30;22.23;;;15.03;;
14754;SDS011;7469;50.906;6.952;2024-01-07T06:55:58;21.40;;;15.90;;
14754;SDS011;7469;50.906;6.952;2024-01-07T06:58:26;20.87;;;15.63;;
14754;SDS011;7469;50.906;6.952;2024-01-07T07:00:55;21.97;;;14.80;;
14754;SDS011;7469;50.906;6.952;2024-01-07T07:03:23;20.23;;;15.00;;
14754;SDS011;7469;50.906;6.952;2024-01-07T07:05:52;20.47;;;14.73;;
14754;SDS011;7469;50.906;6.952;2024-01-07T07:08:20;19.17;;;14.80;;
14754;SDS011;7469;50.906;6.952;2024-01-07T07:10:47;20.67;;;15.03;;
14754;SDS011;7469;50.906;6.952;2024-01-07T07:13:15;22.23;;;15.00;;
14754;SDS011;7469;50.906;6.952;2024-01-07T07:15:43;21.80;;;15.70;;
14754;SDS011;7469;50.906;6.952;2024-01-07T07:18:13;21.00;;;15.17;;
14754;SDS011;7469;50.906;6.952;2024-01-07T07:20:41;20.23;;;14.93;;
14754;SDS011;7469;50.906;6.952;2024-01-07T07:23:09;20.87;;;15.00;;
14754;SDS011;7469;50.906;6.952;2024-01-07T07:25:37;18.23;;;14.20;;
14754;SDS011;7469;50.906;6.952;2024-01-07T07:28:05;19.33;;;13.57;;
14754;SDS011;7469;50.906;6.952;2024-01-07T07:30:33;20.40;;;14.23;;
14754;SDS011;7469;50.906;6.952;2024-01-07T07:33:01;19.03;;;13.73;;
14754;SDS011;7469;50.906;6.952;2024-01-07T07:35:31;18.07;;;13.97;;
14754;SDS011;7469;50.906;6.952;2024-01-07T07:37:59;20.60;;;14.73;;
14754;SDS011;7469;50.906;6.952;2024-01-07T07:40:27;20.07;;;13.60;;
14754;SDS011;7469;50.906;6.952;2024-01-07T07:42:55;19.20;;;13.97;;
14754;SDS011;7469;50.906;6.952;2024-01-07T07:45:23;17.23;;;13.40;;
14754;SDS011;7469;50.906;6.952;2024-01-07T07:47:51;18.80;;;13.80;;
14754;SDS011;7469;50.906;6.952;2024-01-07T07:50:19;18.27;;;13.87;;
14754;SDS011;7469;50.906;6.952;2024-01-07T07:52:49;16.47;;;12.70;;
14754;SDS011;7469;50.906;6.952;2024-01-07T07:55:17;17.40;;;13.33;;
14754;SDS011;7469;50.906;6.952;2024-01-07T07:57:45;16.20;;;12.17;;
14754;SDS011;7469;50.906;6.952;2024-01-07T08:00:14;15.93;;;12.57;;
14754;SDS011;7469;50.906;6.952;2024-01-07T08:02:43;15.63;;;12.50;;
14754;SDS011;7469;50.906;6.952;2024-01-07T08:05:11;15.50;;;12.53;;
14754;SDS011;7469;50.906;6.952;2024-01-07T08:07:39;15.77;;;11.60;;
14754;SDS011;7469;50.906;6.952;2024-01-07T08:10:09;16.83;;;12.50;;
14754;SDS011;7469;50.906;6.952;2024-01-07T08:12:37;16.13;;;12.27;;
14754;SDS011;7469;50.906;6.952;2024-01-07T08:15:05;16.50;;;12.63;;
14754;SDS011;7469;50.906;6.952;2024-01-07T08:17:34;16.47;;;12.17;;
14754;SDS011;7469;50.906;6.952;2024-01-07T08:20:02;15.00;;;12.57;;
14754;SDS011;7469;50.906;6.952;2024-01-07T08:22:31;15.33;;;12.30;;
14754;SDS011;7469;50.906;6.952;2024-01-07T08:24:59;15.53;;;11.97;;
14754;SDS011;7469;50.906;6.952;2024-01-07T08:27:29;17.43;;;13.10;;
14754;SDS011;7469;50.906;6.952;2024-01-07T08:29:58;20.03;;;13.73;;
14754;SDS011;7469;50.906;6.952;2024-01-07T08:32:28;16.40;;;12.57;;
14754;SDS011;7469;50.906;6.952;2024-01-07T08:34:56;16.20;;;12.33;;
14754;SDS011;7469;50.906;6.952;2024-01-07T08:37:24;16.10;;;11.53;;
14754;SDS011;7469;50.906;6.952;2024-01-07T08:39:52;15.20;;;11.87;;
14754;SDS011;7469;50.906;6.952;2024-01-07T08:42:20;15.67;;;12.07;;
14754;SDS011;7469;50.906;6.952;2024-01-07T08:44:51;16.63;;;11.87;;
14754;SDS011;7469;50.906;6.952;2024-01-07T08:47:19;16.10;;;12.50;;
14754;SDS011;7469;50.906;6.952;2024-01-07T08:49:47;16.37;;;11.83;;
14754;SDS011;7469;50.906;6.952;2024-01-07T08:52:15;15.83;;;11.97;;
14754;SDS011;7469;50.906;6.952;2024-01-07T08:54:43;17.83;;;13.43;;
14754;SDS011;7469;50.906;6.952;2024-01-07T08:57:11;15.97;;;11.60;;
14754;SDS011;7469;50.906;6.952;2024-01-07T08:59:39;17.20;;;11.20;;
14754;SDS011;7469;50.906;6.952;2024-01-07T09:02:08;16.87;;;12.33;;
14754;SDS011;7469;50.906;6.952;2024-01-07T09:04:37;16.60;;;11.73;;
14754;SDS011;7469;50.906;6.952;2024-01-07T09:07:05;16.40;;;12.33;;
14754;SDS011;7469;50.906;6.952;2024-01-07T09:09:33;19.40;;;13.00;;
14754;SDS011;7469;50.906;6.952;2024-01-07T09:12:01;16.40;;;12.83;;
14754;SDS011;7469;50.906;6.952;2024-01-07T09:14:30;19.90;;;13.97;;
14754;SDS011;7469;50.906;6.952;2024-01-07T09:16:57;17.90;;;13.87;;
14754;SDS011;7469;50.906;6.952;2024-01-07T09:19:27;16.50;;;12.83;;
14754;SDS011;7469;50.906;6.952;2024-01-07T09:21:55;17.60;;;13.17;;
14754;SDS011;7469;50.906;6.952;2024-01-07T09:24:23;19.70;;;13.93;;
14754;SDS011;7469;50.906;6.952;2024-01-07T09:26:51;17.43;;;11.73;;
14754;SDS011;7469;50.906;6.952;2024-01-07T09:29:19;21.23;;;13.87;;
14754;SDS011;7469;50.906;6.952;2024-01-07T09:31:47;17.03;;;12.47;;
14754;SDS011;7469;50.906;6.952;2024-01-07T09:34:15;21.93;;;13.30;;
14754;SDS011;7469;50.906;6.952;2024-01-07T09:36:45;20.17;;;13.37;;
14754;SDS011;7469;50.906;6.952;2024-01-07T09:39:13;17.57;;;12.10;;
14754;SDS011;7469;50.906;6.952;2024-01-07T09:41:41;18.13;;;12.80;;
14754;SDS011;7469;50.906;6.952;2024-01-07T09:44:08;17.67;;;12.87;;
14754;SDS011;7469;50.906;6.952;2024-01-07T09:46:37;19.57;;;13.03;;
14754;SDS011;7469;50.906;6.952;2024-01-07T09:49:07;17.80;;;12.50;;
14754;SDS011;7469;50.906;6.952;2024-01-07T09:51:35;16.43;;;11.87;;
14754;SDS011;7469;50.906;6.952;2024-01-07T09:54:05;15.67;;;11.87;;
14754;SDS011;7469;50.906;6.952;2024-01-07T09:56:38;15.00;;;11.23;;
14754;SDS011;7469;50.906;6.952;2024-01-07T09:59:09;16.60;;;11.97;;
14754;SDS011;7469;50.906;6.952;2024-01-07T10:01:37;16.30;;;11.30;;
14754;SDS011;7469;50.906;6.952;2024-01-07T10:04:06;18.13;;;12.73;;
14754;SDS011;7469;50.906;6.952;2024-01-07T10:06:34;11.47;;;9.10;;
14754;SDS011;7469;50.906;6.952;2024-01-07T10:09:06;15.07;;;10.43;;
14754;SDS011;7469;50.906;6.952;2024-01-07T10:11:34;30.20;;;19.77;;
14754;SDS011;7469;50.906;6.952;2024-01-07T10:14:02;14.43;;;10.47;;
14754;SDS011;7469;50.906;6.952;2024-01-07T10:16:32;10.40;;;8.10;;
14754;SDS011;7469;50.906;6.952;2024-01-07T10:19:00;10.97;;;8.50;;
14754;SDS011;7469;50.906;6.952;2024-01-07T10:21:28;9.23;;;7.37;;
14754;SDS011;7469;50.906;6.952;2024-01-07T10:24:08;11.43;;;7.27;;
14754;SDS011;7469;50.906;6.952;2024-01-07T10:26:37;8.47;;;6.90;;
14754;SDS011;7469;50.906;6.952;2024-01-07T10:29:05;7.73;;;6.40;;
14754;SDS011;7469;50.906;6.952;2024-01-07T10:31:34;6.43;;;5.80;;
14754;SDS011;7469;50.906;6.952;2024-01-07T10:34:02;8.33;;;6.83;;
14754;SDS011;7469;50.906;6.952;2024-01-07T10:36:30;8.03;;;6.83;;
14754;SDS011;7469;50.906;6.952;2024-01-07T10:38:59;9.33;;;7.07;;
14754;SDS011;7469;50.906;6.952;2024-01-07T10:41:28;9.07;;;7.27;;
14754;SDS011;7469;50.906;6.952;2024-01-07T10:43:58;8.17;;;7.07;;
14754;SDS011;7469;50.906;6.952;2024-01-07T10:46:26;10.53;;;8.57;;
14754;SDS011;7469;50.906;6.952;2024-01-07T10:48:59;9.63;;;7.80;;
14754;SDS011;7469;50.906;6.952;2024-01-07T10:51:33;10.33;;;9.00;;
14754;SDS011;7469;50.906;6.952;2024-01-07T10:54:02;11.53;;;9.13;;
14754;SDS011;7469;50.906;6.952;2024-01-07T10:56:33;11.73;;;8.67;;
14754;SDS011;7469;50.906;6.952;2024-01-07T10:59:10;12.47;;;9.10;;
14754;SDS011;7469;50.906;6.952;2024-01-07T11:01:38;13.37;;;9.27;;
14754;SDS011;7469;50.906;6.952;2024-01-07T11:04:08;11.43;;;9.20;;
14754;SDS011;7469;50.906;6.952;2024-01-07T11:06:41;13.13;;;9.60;;
14754;SDS011;7469;50.906;6.952;2024-01-07T11:09:18;15.33;;;10.43;;
14754;SDS011;7469;50.906;6.952;2024-01-07T11:11:52;15.83;;;11.07;;
14754;SDS011;7469;50.906;6.952;2024-01-07T11:14:39;13.60;;;10.70;;
14754;SDS011;7469;50.906;6.952;2024-01-07T11:17:11;14.40;;;11.23;;
14754;SDS011;7469;50.906;6.952;2024-01-07T11:19:48;13.70;;;10.90;;
14754;SDS011;7469;50.906;6.952;2024-01-07T11:22:21;14.00;;;10.50;;
14754;SDS011;7469;50.906;6.952;2024-01-07T11:24:51;15.80;;;11.40;;
14754;SDS011;7469;50.906;6.952;2024-01-07T11:27:24;15.67;;;11.77;;
14754;SDS011;7469;50.906;6.952;2024-01-07T11:29:52;16.87;;;11.70;;
14754;SDS011;7469;50.906;6.952;2024-01-07T11:32:23;15.03;;;11.13;;
14754;SDS011;7469;50.906;6.952;2024-01-07T11:34:52;16.67;;;12.57;;
14754;SDS011;7469;50.906;6.952;2024-01-07T11:37:23;17.03;;;11.67;;
14754;SDS011;7469;50.906;6.952;2024-01-07T11:39:54;18.30;;;11.93;;
14754;SDS011;7469;50.906;6.952;2024-01-07T11:42:25;22.57;;;14.50;;
14754;SDS011;7469;50.906;6.952;2024-01-07T11:44:53;17.67;;;12.70;;
14754;SDS011;7469;50.906;6.952;2024-01-07T11:47:22;15.67;;;11.93;;
14754;SDS011;7469;50.906;6.952;2024-01-07T11:49:52;14.50;;;11.97;;
14754;SDS011;7469;50.906;6.952;2024-01-07T11:52:21;16.43;;;11.67;;
14754;SDS011;7469;50.906;6.952;2024-01-07T11:54:49;14.80;;;11.20;;
14754;SDS011;7469;50.906;6.952;2024-01-07T11:57:17;19.47;;;11.27;;
14754;SDS011;7469;50.906;6.952;2024-01-07T11:59:46;14.63;;;10.50;;
14754;SDS011;7469;50.906;6.952;2024-01-07T12:02:14;15.43;;;11.37;;
14754;SDS011;7469;50.906;6.952;2024-01-07T12:04:43;18.03;;;11.77;;
14754;SDS011;7469;50.906;6.952;2024-01-07T12:07:11;16.50;;;11.50;;
14754;SDS011;7469;50.906;6.952;2024-01-07T12:09:41;16.07;;;11.87;;
14754;SDS011;7469;50.906;6.952;2024-01-07T12:12:09;14.00;;;10.87;;
14754;SDS011;7469;50.906;6.952;2024-01-07T12:14:37;15.83;;;11.63;;
14754;SDS011;7469;50.906;6.952;2024-01-07T12:17:06;15.27;;;11.30;;
14754;SDS011;7469;50.906;6.952;2024-01-07T12:19:39;15.33;;;10.90;;
14754;SDS011;7469;50.906;6.952;2024-01-07T12:22:08;13.80;;;10.53;;
14754;SDS011;7469;50.906;6.952;2024-01-07T12:24:36;13.73;;;10.97;;
14754;SDS011;7469;50.906;6.952;2024-01-07T12:27:05;13.40;;;9.97;;
14754;SDS011;7469;50.906;6.952;2024-01-07T12:29:33;13.67;;;10.13;;
14754;SDS011;7469;50.906;6.952;2024-01-07T12:32:01;14.93;;;10.60;;
14754;SDS011;7469;50.906;6.952;2024-01-07T12:34:31;13.90;;;11.63;;
14754;SDS011;7469;50.906;6.952;2024-01-07T12:37:00;13.17;;;10.90;;
14754;SDS011;7469;50.906;6.952;2024-01-07T12:39:28;13.90;;;9.73;;
14754;SDS011;7469;50.906;6.952;2024-01-07T12:41:56;12.87;;;9.53;;
14754;SDS011;7469;50.906;6.952;2024-01-07T12:44:26;13.47;;;9.67;;
14754;SDS011;7469;50.906;6.952;2024-01-07T12:46:55;13.43;;;9.70;;
14754;SDS011;7469;50.906;6.952;2024-01-07T12:49:23;14.33;;;9.97;;
14754;SDS011;7469;50.906;6.952;2024-01-07T12:51:52;17.00;;;9.73;;
14754;SDS011;7469;50.906;6.952;2024-01-07T12:54:21;11.67;;;9.27;;
14754;SDS011;7469;50.906;6.952;2024-01-07T12:56:50;12.03;;;9.70;;
14754;SDS011;7469;50.906;6.952;2024-01-07T12:59:19;13.53;;;9.20;;
14754;SDS011;7469;50.906;6.952;2024-01-07T13:01:47;12.13;;;9.20;;
14754;SDS011;7469;50.906;6.952;2024-01-07T13:04:17;14.90;;;9.57;;
14754;SDS011;7469;50.906;6.952;2024-01-07T13:06:46;12.77;;;9.10;;
14754;SDS011;7469;50.906;6.952;2024-01-07T13:09:15;13.63;;;8.67;;
14754;SDS011;7469;50.906;6.952;2024-01-07T13:11:43;12.47;;;8.53;;
14754;SDS011;7469;50.906;6.952;2024-01-07T13:14:11;11.10;;;6.90;;
14754;SDS011;7469;50.906;6.952;2024-01-07T13:16:39;10.43;;;7.53;;
14754;SDS011;7469;50.906;6.952;2024-01-07T13:19:07;9.93;;;6.70;;
14754;SDS011;7469;50.906;6.952;2024-01-07T13:21:38;9.93;;;7.40;;
14754;SDS011;7469;50.906;6.952;2024-01-07T13:24:08;11.10;;;7.10;;
14754;SDS011;7469;50.906;6.952;2024-01-07T13:26:38;8.37;;;6.53;;
14754;SDS011;7469;50.906;6.952;2024-01-07T13:29:08;10.37;;;7.13;;
14754;SDS011;7469;50.906;6.952;2024-01-07T13:31:36;9.43;;;6.90;;
14754;SDS011;7469;50.906;6.952;2024-01-07T13:34:04;8.10;;;6.10;;
14754;SDS011;7469;50.906;6.952;2024-01-07T13:36:32;8.67;;;5.47;;
14754;SDS011;7469;50.906;6.952;2024-01-07T13:39:00;8.97;;;6.10;;
14754;SDS011;7469;50.906;6.952;2024-01-07T13:41:29;8.57;;;5.80;;
14754;SDS011;7469;50.906;6.952;2024-01-07T13:44:00;6.80;;;5.10;;
14754;SDS011;7469;50.906;6.952;2024-01-07T13:46:29;5.97;;;4.67;;
14754;SDS011;7469;50.906;6.952;2024-01-07T13:48:57;7.47;;;4.83;;
14754;SDS011;7469;50.906;6.952;2024-01-07T13:51:26;7.03;;;5.37;;
14754;SDS011;7469;50.906;6.952;2024-01-07T13:53:54;5.47;;;4.50;;
14754;SDS011;7469;50.906;6.952;2024-01-07T13:56:22;6.07;;;4.50;;
14754;SDS011;7469;50.906;6.952;2024-01-07T13:58:50;7.70;;;4.77;;
14754;SDS011;7469;50.906;6.952;2024-01-07T14:01:21;7.40;;;5.00;;
14754;SDS011;7469;50.906;6.952;2024-01-07T14:03:49;5.23;;;4.47;;
14754;SDS011;7469;50.906;6.952;2024-01-07T14:06:18;6.10;;;5.07;;
14754;SDS011;7469;50.906;6.952;2024-01-07T14:08:46;7.97;;;5.10;;
14754;SDS011;7469;50.906;6.952;2024-01-07T14:11:14;8.30;;;5.43;;
14754;SDS011;7469;50.906;6.952;2024-01-07T14:13:42;7.50;;;5.50;;
14754;SDS011;7469;50.906;6.952;2024-01-07T14:16:11;6.40;;;4.97;;
14754;SDS011;7469;50.906;6.952;2024-01-07T14:18:41;8.10;;;4.90;;
14754;SDS011;7469;50.906;6.952;2024-01-07T14:21:09;4.63;;;4.20;;
14754;SDS011;7469;50.906;6.952;2024-01-07T14:23:37;6.07;;;4.83;;
14754;SDS011;7469;50.906;6.952;2024-01-07T14:26:05;5.53;;;4.60;;
14754;SDS011;7469;50.906;6.952;2024-01-07T14:28:33;6.30;;;4.80;;
14754;SDS011;7469;50.906;6.952;2024-01-07T14:31:02;7.00;;;4.80;;
14754;SDS011;7469;50.906;6.952;2024-01-07T14:33:30;5.83;;;4.67;;
14754;SDS011;7469;50.906;6.952;2024-01-07T14:36:01;6.67;;;4.57;;
14754;SDS011;7469;50.906;6.952;2024-01-07T14:38:29;5.97;;;4.73;;
14754;SDS011;7469;50.906;6.952;2024-01-07T14:40:57;7.00;;;4.77;;
14754;SDS011;7469;50.906;6.952;2024-01-07T14:43:26;4.70;;;4.10;;
14754;SDS011;7469;50.906;6.952;2024-01-07T14:45:54;4.70;;;3.77;;
14754;SDS011;7469;50.906;6.952;2024-01-07T14:48:22;5.00;;;4.13;;